sensor_id;sensor_type;location;lat;lon;timestamp;P1;durP1;ratioP1;P2;durP2;ratioP2
3561;SDS011;1795;52.074;4.754;2022-09-09T00:00:29;2.60;;;1.93;;
3561;SDS011;1795;52.074;4.754;2022-09-09T00:03:04;5.43;;;2.10;;
3561;SDS011;1795;52.074;4.754;2022-09-09T00:05:41;2.63;;;2.17;;
3561;SDS011;1795;52.074;4.754;2022-09-09T00:08:18;3.80;;;2.05;;
3561;SDS011;1795;52.074;4.754;2022-09-09T00:10:49;4.70;;;2.40;;
3561;SDS011;1795;52.074;4.754;2022-09-09T00:13:22;4.80;;;2.20;;
3561;SDS011;1795;52.074;4.754;2022-09-09T00:15:57;6.33;;;2.63;;
3561;SDS011;1795;52.074;4.754;2022-09-09T00:18:31;6.90;;;2.90;;
3561;SDS011;1795;52.074;4.754;2022-09-09T00:21:10;4.72;;;2.30;;
3561;SDS011;1795;52.074;4.754;2022-09-09T00:23:43;2.63;;;2.10;;
3561;SDS011;1795;52.074;4.754;2022-09-09T00:26:16;3.20;;;2.57;;
3561;SDS011;1795;52.074;4.754;2022-09-09T00:28:51;4.38;;;2.60;;
3561;SDS011;1795;52.074;4.754;2022-09-09T00:31:25;8.13;;;3.00;;
3561;SDS011;1795;52.074;4.754;2022-09-09T00:33:58;6.85;;;3.08;;
3561;SDS011;1795;52.074;4.754;2022-09-09T00:36:36;4.35;;;2.90;;
3561;SDS011;1795;52.074;4.754;2022-09-09T00:39:05;6.47;;;3.10;;
3561;SDS011;1795;52.074;4.754;2022-09-09T00:41:40;6.38;;;3.28;;
3561;SDS011;1795;52.074;4.754;2022-09-09T00:44:20;5.25;;;3.00;;
3561;SDS011;1795;52.074;4.754;2022-09-09T00:46:59;4.72;;;3.10;;
3561;SDS011;1795;52.074;4.754;2022-09-09T00:49:44;3.47;;;2.90;;
3561;SDS011;1795;52.074;4.754;2022-09-09T00:52:29;5.20;;;2.78;;
3561;SDS011;1795;52.074;4.754;2022-09-09T00:55:04;5.75;;;2.60;;
3561;SDS011;1795;52.074;4.754;2022-09-09T00:57:37;6.28;;;3.25;;
3561;SDS011;1795;52.074;4.754;2022-09-09T01:00:17;5.20;;;3.10;;
3561;SDS011;1795;52.074;4.754;2022-09-09T01:03:00;8.45;;;3.40;;
3561;SDS011;1795;52.074;4.754;2022-09-09T01:05:41;9.50;;;3.57;;
3561;SDS011;1795;52.074;4.754;2022-09-09T01:08:16;5.00;;;3.17;;
3561;SDS011;1795;52.074;4.754;2022-09-09T01:10:54;7.13;;;3.20;;
3561;SDS011;1795;52.074;4.754;2022-09-09T01:13:26;4.25;;;3.22;;
3561;SDS011;1795;52.074;4.754;2022-09-09T01:15:56;5.78;;;3.30;;
3561;SDS011;1795;52.074;4.754;2022-09-09T01:18:27;6.45;;;3.50;;
3561;SDS011;1795;52.074;4.754;2022-09-09T01:21:04;4.22;;;3.72;;
3561;SDS011;1795;52.074;4.754;2022-09-09T01:23:44;4.20;;;3.20;;
3561;SDS011;1795;52.074;4.754;2022-09-09T01:26:29;7.00;;;3.50;;
3561;SDS011;1795;52.074;4.754;2022-09-09T01:28:59;8.32;;;3.55;;
3561;SDS011;1795;52.074;4.754;2022-09-09T01:31:28;7.55;;;3.10;;
3561;SDS011;1795;52.074;4.754;2022-09-09T01:34:01;4.15;;;3.30;;
3561;SDS011;1795;52.074;4.754;2022-09-09T01:36:31;5.38;;;3.70;;
3561;SDS011;1795;52.074;4.754;2022-09-09T01:39:04;4.90;;;3.42;;
3561;SDS011;1795;52.074;4.754;2022-09-09T01:41:33;7.43;;;3.53;;
3561;SDS011;1795;52.074;4.754;2022-09-09T01:44:01;5.50;;;2.90;;
3561;SDS011;1795;52.074;4.754;2022-09-09T01:46:30;5.53;;;3.08;;
3561;SDS011;1795;52.074;4.754;2022-09-09T01:48:58;3.65;;;3.00;;
3561;SDS011;1795;52.074;4.754;2022-09-09T01:51:27;6.40;;;3.38;;
3561;SDS011;1795;52.074;4.754;2022-09-09T01:53:56;5.63;;;2.90;;
3561;SDS011;1795;52.074;4.754;2022-09-09T01:56:28;6.60;;;3.20;;
3561;SDS011;1795;52.074;4.754;2022-09-09T01:59:06;5.33;;;3.33;;
3561;SDS011;1795;52.074;4.754;2022-09-09T02:01:46;3.53;;;2.70;;
3561;SDS011;1795;52.074;4.754;2022-09-09T02:04:28;4.57;;;2.97;;
3561;SDS011;1795;52.074;4.754;2022-09-09T02:07:06;5.22;;;3.10;;
3561;SDS011;1795;52.074;4.754;2022-09-09T02:09:41;4.47;;;3.20;;
3561;SDS011;1795;52.074;4.754;2022-09-09T02:12:13;5.20;;;3.50;;
3561;SDS011;1795;52.074;4.754;2022-09-09T02:14:47;6.50;;;3.25;;
3561;SDS011;1795;52.074;4.754;2022-09-09T02:17:18;4.60;;;2.83;;
3561;SDS011;1795;52.074;4.754;2022-09-09T02:19:52;6.53;;;3.55;;
3561;SDS011;1795;52.074;4.754;2022-09-09T02:22:26;4.60;;;3.00;;
3561;SDS011;1795;52.074;4.754;2022-09-09T02:24:56;5.17;;;3.37;;
3561;SDS011;1795;52.074;4.754;2022-09-09T02:27:27;4.70;;;3.00;;
3561;SDS011;1795;52.074;4.754;2022-09-09T02:29:56;5.22;;;3.25;;
3561;SDS011;1795;52.074;4.754;2022-09-09T02:32:28;5.28;;;3.17;;
3561;SDS011;1795;52.074;4.754;2022-09-09T02:34:59;7.65;;;3.70;;
3561;SDS011;1795;52.074;4.754;2022-09-09T02:37:31;5.20;;;3.75;;
3561;SDS011;1795;52.074;4.754;2022-09-09T02:40:02;5.87;;;3.90;;
3561;SDS011;1795;52.074;4.754;2022-09-09T02:42:31;6.10;;;3.50;;
3561;SDS011;1795;52.074;4.754;2022-09-09T02:45:07;5.53;;;3.70;;
3561;SDS011;1795;52.074;4.754;2022-09-09T02:47:37;6.00;;;3.40;;
3561;SDS011;1795;52.074;4.754;2022-09-09T02:50:11;6.03;;;3.80;;
3561;SDS011;1795;52.074;4.754;2022-09-09T02:52:51;6.05;;;4.50;;
3561;SDS011;1795;52.074;4.754;2022-09-09T02:55:29;8.03;;;4.10;;
3561;SDS011;1795;52.074;4.754;2022-09-09T02:58:05;7.43;;;4.40;;
3561;SDS011;1795;52.074;4.754;2022-09-09T03:00:39;5.23;;;3.90;;
3561;SDS011;1795;52.074;4.754;2022-09-09T03:03:07;7.43;;;4.22;;
3561;SDS011;1795;52.074;4.754;2022-09-09T03:05:36;7.45;;;4.30;;
3561;SDS011;1795;52.074;4.754;2022-09-09T03:08:05;7.22;;;4.50;;
3561;SDS011;1795;52.074;4.754;2022-09-09T03:10:33;6.85;;;4.30;;
3561;SDS011;1795;52.074;4.754;2022-09-09T03:13:01;8.73;;;4.43;;
3561;SDS011;1795;52.074;4.754;2022-09-09T03:15:30;5.60;;;4.20;;
3561;SDS011;1795;52.074;4.754;2022-09-09T03:18:00;7.20;;;3.90;;
3561;SDS011;1795;52.074;4.754;2022-09-09T03:20:29;6.60;;;3.50;;
3561;SDS011;1795;52.074;4.754;2022-09-09T03:22:58;5.40;;;4.20;;
3561;SDS011;1795;52.074;4.754;2022-09-09T03:25:27;6.40;;;3.90;;
3561;SDS011;1795;52.074;4.754;2022-09-09T03:27:57;5.07;;;3.90;;
3561;SDS011;1795;52.074;4.754;2022-09-09T03:30:25;5.72;;;3.92;;
3561;SDS011;1795;52.074;4.754;2022-09-09T03:32:54;5.40;;;3.70;;
3561;SDS011;1795;52.074;4.754;2022-09-09T03:35:24;7.53;;;3.73;;
3561;SDS011;1795;52.074;4.754;2022-09-09T03:37:52;4.20;;;3.40;;
3561;SDS011;1795;52.074;4.754;2022-09-09T03:40:21;5.40;;;3.63;;
3561;SDS011;1795;52.074;4.754;2022-09-09T03:42:49;5.75;;;3.88;;
3561;SDS011;1795;52.074;4.754;2022-09-09T03:45:16;5.30;;;3.97;;
3561;SDS011;1795;52.074;4.754;2022-09-09T03:47:45;6.17;;;3.80;;
3561;SDS011;1795;52.074;4.754;2022-09-09T03:50:13;5.07;;;3.70;;
3561;SDS011;1795;52.074;4.754;2022-09-09T03:52:42;7.95;;;4.07;;
3561;SDS011;1795;52.074;4.754;2022-09-09T03:55:10;4.47;;;3.58;;
3561;SDS011;1795;52.074;4.754;2022-09-09T03:57:38;6.10;;;3.40;;
3561;SDS011;1795;52.074;4.754;2022-09-09T04:00:07;5.93;;;3.87;;
3561;SDS011;1795;52.074;4.754;2022-09-09T04:02:35;7.45;;;3.60;;
3561;SDS011;1795;52.074;4.754;2022-09-09T04:05:04;5.90;;;3.70;;
3561;SDS011;1795;52.074;4.754;2022-09-09T04:07:33;9.13;;;3.60;;
3561;SDS011;1795;52.074;4.754;2022-09-09T04:10:02;5.53;;;3.95;;
3561;SDS011;1795;52.074;4.754;2022-09-09T04:12:30;5.55;;;3.80;;
3561;SDS011;1795;52.074;4.754;2022-09-09T04:14:58;5.40;;;4.05;;
3561;SDS011;1795;52.074;4.754;2022-09-09T04:17:28;4.88;;;3.20;;
3561;SDS011;1795;52.074;4.754;2022-09-09T04:19:56;6.38;;;3.72;;
3561;SDS011;1795;52.074;4.754;2022-09-09T04:22:24;4.47;;;3.50;;
3561;SDS011;1795;52.074;4.754;2022-09-09T04:24:52;6.20;;;3.42;;
3561;SDS011;1795;52.074;4.754;2022-09-09T04:27:21;5.53;;;3.50;;
3561;SDS011;1795;52.074;4.754;2022-09-09T04:29:49;5.75;;;3.70;;
3561;SDS011;1795;52.074;4.754;2022-09-09T04:32:17;8.88;;;3.70;;
3561;SDS011;1795;52.074;4.754;2022-09-09T04:34:45;3.70;;;2.80;;
3561;SDS011;1795;52.074;4.754;2022-09-09T04:37:14;5.70;;;3.33;;
3561;SDS011;1795;52.074;4.754;2022-09-09T04:39:42;3.80;;;3.10;;
3561;SDS011;1795;52.074;4.754;2022-09-09T04:42:11;4.25;;;3.30;;
3561;SDS011;1795;52.074;4.754;2022-09-09T04:44:40;5.03;;;3.20;;
3561;SDS011;1795;52.074;4.754;2022-09-09T04:47:26;4.24;;;3.10;;
3561;SDS011;1795;52.074;4.754;2022-09-09T04:49:54;4.35;;;3.03;;
3561;SDS011;1795;52.074;4.754;2022-09-09T04:52:22;6.32;;;3.42;;
3561;SDS011;1795;52.074;4.754;2022-09-09T04:54:50;5.75;;;3.20;;
3561;SDS011;1795;52.074;4.754;2022-09-09T04:57:20;8.50;;;3.25;;
3561;SDS011;1795;52.074;4.754;2022-09-09T04:59:49;5.35;;;3.42;;
3561;SDS011;1795;52.074;4.754;2022-09-09T05:02:17;6.22;;;3.10;;
3561;SDS011;1795;52.074;4.754;2022-09-09T05:04:45;4.40;;;2.83;;
3561;SDS011;1795;52.074;4.754;2022-09-09T05:07:13;5.57;;;3.00;;
3561;SDS011;1795;52.074;4.754;2022-09-09T05:09:41;5.40;;;3.00;;
3561;SDS011;1795;52.074;4.754;2022-09-09T05:12:09;4.32;;;2.67;;
3561;SDS011;1795;52.074;4.754;2022-09-09T05:14:37;4.50;;;2.90;;
3561;SDS011;1795;52.074;4.754;2022-09-09T05:17:06;6.95;;;3.13;;
3561;SDS011;1795;52.074;4.754;2022-09-09T05:19:34;4.60;;;2.50;;
3561;SDS011;1795;52.074;4.754;2022-09-09T05:22:02;5.03;;;2.55;;
3561;SDS011;1795;52.074;4.754;2022-09-09T05:24:30;3.70;;;2.55;;
3561;SDS011;1795;52.074;4.754;2022-09-09T05:26:59;5.30;;;2.90;;
3561;SDS011;1795;52.074;4.754;2022-09-09T05:29:28;3.53;;;2.53;;
3561;SDS011;1795;52.074;4.754;2022-09-09T05:31:58;4.30;;;2.50;;
3561;SDS011;1795;52.074;4.754;2022-09-09T05:34:27;4.13;;;2.25;;
3561;SDS011;1795;52.074;4.754;2022-09-09T05:36:55;6.38;;;2.30;;
3561;SDS011;1795;52.074;4.754;2022-09-09T05:39:24;5.07;;;2.40;;
3561;SDS011;1795;52.074;4.754;2022-09-09T05:41:52;5.70;;;2.90;;
3561;SDS011;1795;52.074;4.754;2022-09-09T05:44:21;4.77;;;2.30;;
3561;SDS011;1795;52.074;4.754;2022-09-09T05:46:53;5.63;;;2.67;;
3561;SDS011;1795;52.074;4.754;2022-09-09T05:49:21;4.93;;;2.20;;
3561;SDS011;1795;52.074;4.754;2022-09-09T05:51:50;4.90;;;2.30;;
3561;SDS011;1795;52.074;4.754;2022-09-09T05:54:19;3.72;;;2.35;;
3561;SDS011;1795;52.074;4.754;2022-09-09T05:56:47;6.93;;;2.67;;
3561;SDS011;1795;52.074;4.754;2022-09-09T05:59:17;5.00;;;2.80;;
3561;SDS011;1795;52.074;4.754;2022-09-09T06:01:45;6.35;;;2.20;;
3561;SDS011;1795;52.074;4.754;2022-09-09T06:04:13;4.55;;;2.35;;
3561;SDS011;1795;52.074;4.754;2022-09-09T06:06:42;4.88;;;2.35;;
3561;SDS011;1795;52.074;4.754;2022-09-09T06:09:11;5.95;;;2.70;;
3561;SDS011;1795;52.074;4.754;2022-09-09T06:11:39;4.75;;;2.45;;
3561;SDS011;1795;52.074;4.754;2022-09-09T06:14:09;4.30;;;2.40;;
3561;SDS011;1795;52.074;4.754;2022-09-09T06:16:37;6.25;;;2.20;;
3561;SDS011;1795;52.074;4.754;2022-09-09T06:19:05;3.80;;;2.15;;
3561;SDS011;1795;52.074;4.754;2022-09-09T06:21:33;7.75;;;2.78;;
3561;SDS011;1795;52.074;4.754;2022-09-09T06:24:03;10.15;;;2.50;;
3561;SDS011;1795;52.074;4.754;2022-09-09T06:26:35;6.50;;;2.50;;
3561;SDS011;1795;52.074;4.754;2022-09-09T06:29:06;7.20;;;2.50;;
3561;SDS011;1795;52.074;4.754;2022-09-09T06:31:35;6.22;;;2.15;;
3561;SDS011;1795;52.074;4.754;2022-09-09T06:34:04;8.70;;;2.55;;
3561;SDS011;1795;52.074;4.754;2022-09-09T06:36:34;9.23;;;2.20;;
3561;SDS011;1795;52.074;4.754;2022-09-09T06:39:04;7.10;;;2.90;;
3561;SDS011;1795;52.074;4.754;2022-09-09T06:41:40;6.80;;;2.85;;
3561;SDS011;1795;52.074;4.754;2022-09-09T06:44:09;8.32;;;2.55;;
3561;SDS011;1795;52.074;4.754;2022-09-09T06:46:37;8.63;;;2.80;;
3561;SDS011;1795;52.074;4.754;2022-09-09T06:49:07;6.80;;;2.70;;
3561;SDS011;1795;52.074;4.754;2022-09-09T06:51:36;5.82;;;2.20;;
3561;SDS011;1795;52.074;4.754;2022-09-09T06:54:08;8.70;;;2.75;;
3561;SDS011;1795;52.074;4.754;2022-09-09T06:56:37;8.98;;;3.30;;
3561;SDS011;1795;52.074;4.754;2022-09-09T06:59:08;8.25;;;2.50;;
3561;SDS011;1795;52.074;4.754;2022-09-09T07:01:38;6.60;;;2.80;;
3561;SDS011;1795;52.074;4.754;2022-09-09T07:04:07;8.50;;;3.40;;
3561;SDS011;1795;52.074;4.754;2022-09-09T07:06:37;6.57;;;2.90;;
3561;SDS011;1795;52.074;4.754;2022-09-09T07:09:08;6.10;;;2.90;;
3561;SDS011;1795;52.074;4.754;2022-09-09T07:11:37;9.57;;;3.28;;
3561;SDS011;1795;52.074;4.754;2022-09-09T07:14:08;11.05;;;3.50;;
3561;SDS011;1795;52.074;4.754;2022-09-09T07:16:39;10.25;;;3.53;;
3561;SDS011;1795;52.074;4.754;2022-09-09T07:19:08;10.20;;;3.40;;
3561;SDS011;1795;52.074;4.754;2022-09-09T07:21:37;7.25;;;3.60;;
3561;SDS011;1795;52.074;4.754;2022-09-09T07:24:06;12.57;;;3.33;;
3561;SDS011;1795;52.074;4.754;2022-09-09T07:26:36;10.40;;;3.22;;
3561;SDS011;1795;52.074;4.754;2022-09-09T07:29:07;12.90;;;3.85;;
3561;SDS011;1795;52.074;4.754;2022-09-09T07:31:37;9.83;;;3.47;;
3561;SDS011;1795;52.074;4.754;2022-09-09T07:34:26;15.66;;;3.70;;
3561;SDS011;1795;52.074;4.754;2022-09-09T07:36:53;9.52;;;3.85;;
3561;SDS011;1795;52.074;4.754;2022-09-09T07:39:23;8.60;;;3.90;;
3561;SDS011;1795;52.074;4.754;2022-09-09T07:41:51;9.63;;;3.63;;
3561;SDS011;1795;52.074;4.754;2022-09-09T07:44:22;11.38;;;4.00;;
3561;SDS011;1795;52.074;4.754;2022-09-09T07:46:52;11.02;;;4.35;;
3561;SDS011;1795;52.074;4.754;2022-09-09T07:49:21;10.35;;;4.35;;
3561;SDS011;1795;52.074;4.754;2022-09-09T07:51:56;12.55;;;4.00;;
3561;SDS011;1795;52.074;4.754;2022-09-09T07:54:24;8.68;;;3.85;;
3561;SDS011;1795;52.074;4.754;2022-09-09T07:56:52;12.57;;;4.35;;
3561;SDS011;1795;52.074;4.754;2022-09-09T07:59:21;9.38;;;4.25;;
3561;SDS011;1795;52.074;4.754;2022-09-09T08:01:50;9.88;;;3.90;;
3561;SDS011;1795;52.074;4.754;2022-09-09T08:04:20;9.70;;;4.10;;
3561;SDS011;1795;52.074;4.754;2022-09-09T08:06:50;12.65;;;4.20;;
3561;SDS011;1795;52.074;4.754;2022-09-09T08:09:20;9.93;;;4.22;;
3561;SDS011;1795;52.074;4.754;2022-09-09T08:11:51;6.90;;;4.07;;
3561;SDS011;1795;52.074;4.754;2022-09-09T08:14:19;7.60;;;3.40;;
3561;SDS011;1795;52.074;4.754;2022-09-09T08:16:48;10.68;;;4.20;;
3561;SDS011;1795;52.074;4.754;2022-09-09T08:19:20;9.67;;;3.70;;
3561;SDS011;1795;52.074;4.754;2022-09-09T08:21:48;8.00;;;3.70;;
3561;SDS011;1795;52.074;4.754;2022-09-09T08:24:17;8.47;;;3.63;;
3561;SDS011;1795;52.074;4.754;2022-09-09T08:26:46;7.22;;;3.45;;
3561;SDS011;1795;52.074;4.754;2022-09-09T08:29:16;9.57;;;4.20;;
3561;SDS011;1795;52.074;4.754;2022-09-09T08:31:45;8.45;;;3.63;;
3561;SDS011;1795;52.074;4.754;2022-09-09T08:34:15;7.30;;;3.40;;
3561;SDS011;1795;52.074;4.754;2022-09-09T08:36:44;8.43;;;3.53;;
3561;SDS011;1795;52.074;4.754;2022-09-09T08:39:13;12.65;;;3.50;;
3561;SDS011;1795;52.074;4.754;2022-09-09T08:44:48;10.13;;;3.90;;
3561;SDS011;1795;52.074;4.754;2022-09-09T08:47:28;13.23;;;4.27;;
3561;SDS011;1795;52.074;4.754;2022-09-09T08:50:13;9.68;;;3.30;;
3561;SDS011;1795;52.074;4.754;2022-09-09T08:52:49;12.25;;;4.47;;
3561;SDS011;1795;52.074;4.754;2022-09-09T08:55:27;8.45;;;2.97;;
3561;SDS011;1795;52.074;4.754;2022-09-09T08:58:01;9.50;;;3.58;;
3561;SDS011;1795;52.074;4.754;2022-09-09T09:00:38;11.23;;;4.03;;
3561;SDS011;1795;52.074;4.754;2022-09-09T09:03:19;5.43;;;3.35;;
3561;SDS011;1795;52.074;4.754;2022-09-09T09:05:59;8.20;;;2.70;;
3561;SDS011;1795;52.074;4.754;2022-09-09T09:08:35;12.63;;;2.88;;
3561;SDS011;1795;52.074;4.754;2022-09-09T09:11:11;10.40;;;2.67;;
3561;SDS011;1795;52.074;4.754;2022-09-09T09:13:40;11.77;;;3.00;;
3561;SDS011;1795;52.074;4.754;2022-09-09T09:16:14;8.25;;;3.00;;
3561;SDS011;1795;52.074;4.754;2022-09-09T09:18:48;7.80;;;2.90;;
3561;SDS011;1795;52.074;4.754;2022-09-09T09:21:19;8.23;;;2.53;;
3561;SDS011;1795;52.074;4.754;2022-09-09T09:23:54;9.80;;;3.50;;
3561;SDS011;1795;52.074;4.754;2022-09-09T09:26:25;6.65;;;2.72;;
3561;SDS011;1795;52.074;4.754;2022-09-09T09:28:58;8.40;;;3.13;;
3561;SDS011;1795;52.074;4.754;2022-09-09T09:31:29;9.48;;;3.08;;
3561;SDS011;1795;52.074;4.754;2022-09-09T09:33:58;6.10;;;2.40;;
3561;SDS011;1795;52.074;4.754;2022-09-09T09:36:35;8.30;;;3.00;;
3561;SDS011;1795;52.074;4.754;2022-09-09T09:39:07;6.70;;;2.40;;
3561;SDS011;1795;52.074;4.754;2022-09-09T09:41:55;12.18;;;2.38;;
3561;SDS011;1795;52.074;4.754;2022-09-09T09:44:32;6.20;;;2.05;;
3561;SDS011;1795;52.074;4.754;2022-09-09T09:47:06;7.13;;;2.67;;
3561;SDS011;1795;52.074;4.754;2022-09-09T09:49:35;6.67;;;2.50;;
3561;SDS011;1795;52.074;4.754;2022-09-09T09:52:05;7.87;;;2.60;;
3561;SDS011;1795;52.074;4.754;2022-09-09T09:54:37;11.97;;;2.70;;
3561;SDS011;1795;52.074;4.754;2022-09-09T09:57:09;9.43;;;3.13;;
3561;SDS011;1795;52.074;4.754;2022-09-09T09:59:38;8.75;;;2.60;;
3561;SDS011;1795;52.074;4.754;2022-09-09T10:02:13;9.40;;;2.90;;
3561;SDS011;1795;52.074;4.754;2022-09-09T10:04:43;6.07;;;2.40;;
3561;SDS011;1795;52.074;4.754;2022-09-09T10:07:17;7.90;;;2.90;;
3561;SDS011;1795;52.074;4.754;2022-09-09T10:09:47;7.97;;;2.30;;
3561;SDS011;1795;52.074;4.754;2022-09-09T10:12:23;5.50;;;2.20;;
3561;SDS011;1795;52.074;4.754;2022-09-09T10:15:01;6.40;;;2.60;;
3561;SDS011;1795;52.074;4.754;2022-09-09T10:17:36;7.57;;;2.20;;
3561;SDS011;1795;52.074;4.754;2022-09-09T10:20:16;6.18;;;2.08;;
3561;SDS011;1795;52.074;4.754;2022-09-09T10:23:00;7.53;;;2.42;;
3561;SDS011;1795;52.074;4.754;2022-09-09T10:25:40;6.05;;;2.05;;
3561;SDS011;1795;52.074;4.754;2022-09-09T10:28:30;10.57;;;2.47;;
3561;SDS011;1795;52.074;4.754;2022-09-09T10:31:13;7.85;;;2.20;;
3561;SDS011;1795;52.074;4.754;2022-09-09T10:33:51;4.68;;;2.20;;
3561;SDS011;1795;52.074;4.754;2022-09-09T10:36:30;10.32;;;3.05;;
3561;SDS011;1795;52.074;4.754;2022-09-09T10:39:00;8.82;;;2.55;;
3561;SDS011;1795;52.074;4.754;2022-09-09T10:41:37;8.40;;;2.53;;
3561;SDS011;1795;52.074;4.754;2022-09-09T10:44:15;7.40;;;2.20;;
3561;SDS011;1795;52.074;4.754;2022-09-09T10:47:11;7.17;;;2.20;;
3561;SDS011;1795;52.074;4.754;2022-09-09T10:49:58;6.60;;;2.60;;
3561;SDS011;1795;52.074;4.754;2022-09-09T10:52:39;8.32;;;2.20;;
3561;SDS011;1795;52.074;4.754;2022-09-09T10:55:16;6.00;;;1.85;;
3561;SDS011;1795;52.074;4.754;2022-09-09T10:57:46;5.35;;;1.92;;
3561;SDS011;1795;52.074;4.754;2022-09-09T11:00:17;6.35;;;2.00;;
3561;SDS011;1795;52.074;4.754;2022-09-09T11:02:47;6.25;;;2.20;;
3561;SDS011;1795;52.074;4.754;2022-09-09T11:05:20;8.93;;;2.35;;
3561;SDS011;1795;52.074;4.754;2022-09-09T11:07:56;6.50;;;2.10;;
3561;SDS011;1795;52.074;4.754;2022-09-09T11:10:38;6.70;;;2.30;;
3561;SDS011;1795;52.074;4.754;2022-09-09T11:13:10;9.48;;;2.10;;
3561;SDS011;1795;52.074;4.754;2022-09-09T11:15:44;7.72;;;2.30;;
3561;SDS011;1795;52.074;4.754;2022-09-09T11:18:19;7.47;;;2.10;;
3561;SDS011;1795;52.074;4.754;2022-09-09T11:20:50;3.75;;;1.50;;
3561;SDS011;1795;52.074;4.754;2022-09-09T11:23:22;4.60;;;2.00;;
3561;SDS011;1795;52.074;4.754;2022-09-09T11:25:56;4.30;;;1.77;;
3561;SDS011;1795;52.074;4.754;2022-09-09T11:28:32;7.28;;;2.10;;
3561;SDS011;1795;52.074;4.754;2022-09-09T11:31:21;5.40;;;1.55;;
3561;SDS011;1795;52.074;4.754;2022-09-09T11:34:08;5.18;;;1.90;;
3561;SDS011;1795;52.074;4.754;2022-09-09T11:36:50;4.88;;;1.70;;
3561;SDS011;1795;52.074;4.754;2022-09-09T11:42:42;5.82;;;2.10;;
3561;SDS011;1795;52.074;4.754;2022-09-09T11:45:11;3.67;;;1.30;;
3561;SDS011;1795;52.074;4.754;2022-09-09T11:47:51;4.53;;;2.13;;
3561;SDS011;1795;52.074;4.754;2022-09-09T11:50:27;4.05;;;2.40;;
3561;SDS011;1795;52.074;4.754;2022-09-09T11:56:03;4.07;;;1.90;;
3561;SDS011;1795;52.074;4.754;2022-09-09T11:58:38;3.78;;;2.00;;
3561;SDS011;1795;52.074;4.754;2022-09-09T12:01:15;7.97;;;2.00;;
3561;SDS011;1795;52.074;4.754;2022-09-09T12:03:55;3.67;;;1.98;;
3561;SDS011;1795;52.074;4.754;2022-09-09T12:06:41;3.53;;;2.10;;
3561;SDS011;1795;52.074;4.754;2022-09-09T12:09:16;4.03;;;2.43;;
3561;SDS011;1795;52.074;4.754;2022-09-09T12:11:49;4.45;;;2.00;;
3561;SDS011;1795;52.074;4.754;2022-09-09T12:14:23;6.63;;;2.88;;
3561;SDS011;1795;52.074;4.754;2022-09-09T12:17:09;5.20;;;2.97;;
3561;SDS011;1795;52.074;4.754;2022-09-09T12:19:46;7.38;;;3.05;;
3561;SDS011;1795;52.074;4.754;2022-09-09T12:22:16;6.50;;;2.83;;
3561;SDS011;1795;52.074;4.754;2022-09-09T12:24:52;6.70;;;3.10;;
3561;SDS011;1795;52.074;4.754;2022-09-09T12:27:27;9.15;;;3.20;;
3561;SDS011;1795;52.074;4.754;2022-09-09T12:30:01;10.18;;;3.00;;
3561;SDS011;1795;52.074;4.754;2022-09-09T12:32:32;6.85;;;3.30;;
3561;SDS011;1795;52.074;4.754;2022-09-09T12:35:02;7.70;;;3.20;;
3561;SDS011;1795;52.074;4.754;2022-09-09T12:37:34;7.10;;;3.25;;
3561;SDS011;1795;52.074;4.754;2022-09-09T12:40:04;6.75;;;2.90;;
3561;SDS011;1795;52.074;4.754;2022-09-09T12:42:33;6.03;;;2.90;;
3561;SDS011;1795;52.074;4.754;2022-09-09T12:45:16;7.87;;;3.20;;
3561;SDS011;1795;52.074;4.754;2022-09-09T12:47:46;12.70;;;3.10;;
3561;SDS011;1795;52.074;4.754;2022-09-09T12:50:19;10.55;;;3.70;;
3561;SDS011;1795;52.074;4.754;2022-09-09T12:52:49;9.88;;;4.00;;
3561;SDS011;1795;52.074;4.754;2022-09-09T12:55:20;11.40;;;3.45;;
3561;SDS011;1795;52.074;4.754;2022-09-09T12:57:51;9.47;;;2.97;;
3561;SDS011;1795;52.074;4.754;2022-09-09T13:00:22;6.57;;;3.25;;
3561;SDS011;1795;52.074;4.754;2022-09-09T13:02:53;6.40;;;3.10;;
3561;SDS011;1795;52.074;4.754;2022-09-09T13:05:23;4.97;;;2.95;;
3561;SDS011;1795;52.074;4.754;2022-09-09T13:07:59;6.28;;;2.90;;
3561;SDS011;1795;52.074;4.754;2022-09-09T13:10:29;8.40;;;3.00;;
3561;SDS011;1795;52.074;4.754;2022-09-09T13:13:19;6.60;;;2.85;;
3561;SDS011;1795;52.074;4.754;2022-09-09T13:15:51;5.88;;;2.90;;
3561;SDS011;1795;52.074;4.754;2022-09-09T13:18:21;8.15;;;2.40;;
3561;SDS011;1795;52.074;4.754;2022-09-09T13:20:51;5.93;;;2.60;;
3561;SDS011;1795;52.074;4.754;2022-09-09T13:23:20;7.63;;;2.40;;
3561;SDS011;1795;52.074;4.754;2022-09-09T13:25:55;5.80;;;2.30;;
3561;SDS011;1795;52.074;4.754;2022-09-09T13:28:25;3.92;;;2.30;;
3561;SDS011;1795;52.074;4.754;2022-09-09T13:31:01;5.10;;;2.30;;
3561;SDS011;1795;52.074;4.754;2022-09-09T13:33:32;5.80;;;2.95;;
3561;SDS011;1795;52.074;4.754;2022-09-09T13:36:03;6.18;;;2.55;;
3561;SDS011;1795;52.074;4.754;2022-09-09T13:38:33;5.65;;;2.45;;
3561;SDS011;1795;52.074;4.754;2022-09-09T13:41:04;8.60;;;2.10;;
3561;SDS011;1795;52.074;4.754;2022-09-09T13:43:34;5.60;;;1.95;;
3561;SDS011;1795;52.074;4.754;2022-09-09T13:46:06;3.38;;;2.00;;
3561;SDS011;1795;52.074;4.754;2022-09-09T13:48:54;4.00;;;1.70;;
3561;SDS011;1795;52.074;4.754;2022-09-09T13:51:27;3.60;;;1.70;;
3561;SDS011;1795;52.074;4.754;2022-09-09T13:54:00;2.90;;;1.60;;
3561;SDS011;1795;52.074;4.754;2022-09-09T13:56:28;3.22;;;1.90;;
3561;SDS011;1795;52.074;4.754;2022-09-09T13:58:56;3.77;;;2.20;;
3561;SDS011;1795;52.074;4.754;2022-09-09T14:01:26;3.30;;;1.90;;
3561;SDS011;1795;52.074;4.754;2022-09-09T14:03:55;3.87;;;2.10;;
3561;SDS011;1795;52.074;4.754;2022-09-09T14:06:23;6.57;;;1.90;;
3561;SDS011;1795;52.074;4.754;2022-09-09T14:08:51;5.35;;;2.08;;
3561;SDS011;1795;52.074;4.754;2022-09-09T14:11:20;3.53;;;1.60;;
3561;SDS011;1795;52.074;4.754;2022-09-09T14:13:48;5.80;;;1.80;;
3561;SDS011;1795;52.074;4.754;2022-09-09T14:16:17;5.50;;;2.03;;
3561;SDS011;1795;52.074;4.754;2022-09-09T14:18:46;3.83;;;1.60;;
3561;SDS011;1795;52.074;4.754;2022-09-09T14:21:15;7.40;;;2.00;;
3561;SDS011;1795;52.074;4.754;2022-09-09T14:23:43;4.93;;;1.42;;
3561;SDS011;1795;52.074;4.754;2022-09-09T14:26:10;4.67;;;1.30;;
3561;SDS011;1795;52.074;4.754;2022-09-09T14:28:39;3.20;;;1.60;;
3561;SDS011;1795;52.074;4.754;2022-09-09T14:31:21;4.38;;;1.40;;
3561;SDS011;1795;52.074;4.754;2022-09-09T14:33:50;2.42;;;1.33;;
3561;SDS011;1795;52.074;4.754;2022-09-09T14:36:19;2.30;;;1.37;;
3561;SDS011;1795;52.074;4.754;2022-09-09T14:38:47;5.53;;;1.50;;
3561;SDS011;1795;52.074;4.754;2022-09-09T14:41:15;3.92;;;1.40;;
3561;SDS011;1795;52.074;4.754;2022-09-09T14:43:45;1.90;;;1.20;;
3561;SDS011;1795;52.074;4.754;2022-09-09T14:46:14;2.50;;;1.10;;
3561;SDS011;1795;52.074;4.754;2022-09-09T14:48:43;4.45;;;1.30;;
3561;SDS011;1795;52.074;4.754;2022-09-09T14:51:14;4.38;;;1.50;;
3561;SDS011;1795;52.074;4.754;2022-09-09T14:53:43;2.53;;;1.10;;
3561;SDS011;1795;52.074;4.754;2022-09-09T14:56:12;3.00;;;1.20;;
3561;SDS011;1795;52.074;4.754;2022-09-09T14:58:41;4.25;;;1.30;;
3561;SDS011;1795;52.074;4.754;2022-09-09T15:01:10;4.20;;;1.43;;
3561;SDS011;1795;52.074;4.754;2022-09-09T15:03:40;5.50;;;1.58;;
3561;SDS011;1795;52.074;4.754;2022-09-09T15:06:10;4.57;;;1.60;;
3561;SDS011;1795;52.074;4.754;2022-09-09T15:08:41;4.88;;;1.90;;
3561;SDS011;1795;52.074;4.754;2022-09-09T15:11:11;3.90;;;1.20;;
3561;SDS011;1795;52.074;4.754;2022-09-09T15:13:41;2.97;;;1.35;;
3561;SDS011;1795;52.074;4.754;2022-09-09T15:16:10;4.20;;;1.30;;
3561;SDS011;1795;52.074;4.754;2022-09-09T15:18:39;3.83;;;1.60;;
3561;SDS011;1795;52.074;4.754;2022-09-09T15:21:09;3.63;;;1.50;;
3561;SDS011;1795;52.074;4.754;2022-09-09T15:23:38;6.60;;;1.60;;
3561;SDS011;1795;52.074;4.754;2022-09-09T15:26:06;4.20;;;1.60;;
3561;SDS011;1795;52.074;4.754;2022-09-09T15:28:35;5.53;;;1.83;;
3561;SDS011;1795;52.074;4.754;2022-09-09T15:31:05;3.42;;;1.38;;
3561;SDS011;1795;52.074;4.754;2022-09-09T15:33:34;6.03;;;1.70;;
3561;SDS011;1795;52.074;4.754;2022-09-09T15:36:13;4.63;;;1.90;;
3561;SDS011;1795;52.074;4.754;2022-09-09T15:38:44;2.60;;;1.30;;
3561;SDS011;1795;52.074;4.754;2022-09-09T15:41:12;8.07;;;2.00;;
3561;SDS011;1795;52.074;4.754;2022-09-09T15:43:43;2.67;;;1.20;;
3561;SDS011;1795;52.074;4.754;2022-09-09T15:46:21;5.97;;;1.70;;
3561;SDS011;1795;52.074;4.754;2022-09-09T15:48:53;5.43;;;1.40;;
3561;SDS011;1795;52.074;4.754;2022-09-09T15:51:23;4.25;;;1.33;;
3561;SDS011;1795;52.074;4.754;2022-09-09T15:54:11;3.27;;;1.30;;